createdAt,value
2022-07-26T00:02:18.545Z,11.65
2022-07-26T00:04:44.952Z,10.95
2022-07-26T00:07:11.176Z,16.02
2022-07-26T00:09:37.435Z,15.23
2022-07-26T00:12:03.657Z,14.73
2022-07-26T00:14:29.931Z,11.68
2022-07-26T00:16:56.210Z,11.85
2022-07-26T00:19:22.504Z,11.13
2022-07-26T00:21:48.741Z,11.20
2022-07-26T00:24:15.007Z,10.40
2022-07-26T00:26:41.278Z,13.98
2022-07-26T00:29:07.891Z,8.85
2022-07-26T00:31:34.427Z,11.60
2022-07-26T00:34:00.728Z,9.63
2022-07-26T00:36:26.937Z,11.70
2022-07-26T00:38:53.196Z,12.85
2022-07-26T00:41:19.412Z,13.32
2022-07-26T00:43:45.662Z,11.93
2022-07-26T00:46:11.962Z,11.30
2022-07-26T00:48:38.259Z,12.93
2022-07-26T00:51:04.551Z,8.75
2022-07-26T00:53:30.781Z,10.98
2022-07-26T00:55:57.020Z,13.73
2022-07-26T00:58:23.237Z,8.73
2022-07-26T01:00:49.528Z,9.80
2022-07-26T01:03:15.807Z,9.80
2022-07-26T01:05:42.051Z,9.70
2022-07-26T01:08:08.279Z,8.63
2022-07-26T01:10:34.529Z,8.77
2022-07-26T01:13:00.759Z,8.57
2022-07-26T01:15:27.017Z,10.15
2022-07-26T01:17:53.233Z,11.52
2022-07-26T01:20:19.495Z,8.40
2022-07-26T01:22:45.725Z,9.45
2022-07-26T01:25:11.972Z,8.82
2022-07-26T01:27:38.213Z,13.68
2022-07-26T01:30:04.524Z,11.20
2022-07-26T01:32:30.759Z,10.43
2022-07-26T01:34:56.998Z,9.57
2022-07-26T01:37:23.220Z,10.07
2022-07-26T01:39:49.487Z,8.85
2022-07-26T01:42:15.700Z,12.93
2022-07-26T01:44:41.999Z,11.18
2022-07-26T01:47:08.231Z,13.93
2022-07-26T01:49:34.583Z,17.02
2022-07-26T01:52:00.876Z,13.60
2022-07-26T01:54:27.252Z,10.85
2022-07-26T01:56:53.512Z,12.18
2022-07-26T01:59:19.774Z,15.05
2022-07-26T02:01:46.028Z,12.75
2022-07-26T02:04:12.630Z,15.13
2022-07-26T02:06:39.013Z,17.02
2022-07-26T02:09:07.502Z,19.58
2022-07-26T02:11:34.021Z,15.40
2022-07-26T02:14:00.254Z,13.07
2022-07-26T02:16:26.601Z,13.15
2022-07-26T02:18:52.967Z,11.57
2022-07-26T02:21:19.300Z,16.42
2022-07-26T02:23:45.663Z,15.52
2022-07-26T02:26:11.915Z,14.95
2022-07-26T02:28:38.196Z,14.65
2022-07-26T02:31:04.723Z,12.57
2022-07-26T02:33:31.267Z,17.00
2022-07-26T02:35:57.606Z,14.98
2022-07-26T02:38:25.118Z,13.30
2022-07-26T02:40:51.593Z,17.25
2022-07-26T02:43:17.881Z,13.68
2022-07-26T02:45:44.193Z,13.20
2022-07-26T02:48:27.670Z,15.05
2022-07-26T02:50:54.501Z,15.85
2022-07-26T02:53:20.762Z,14.07
2022-07-26T02:55:47.151Z,14.20
2022-07-26T02:58:13.388Z,14.50
2022-07-26T03:00:39.649Z,16.92
2022-07-26T03:03:06.240Z,13.77
2022-07-26T03:05:32.626Z,12.77
2022-07-26T03:07:58.924Z,11.85
2022-07-26T03:10:25.381Z,11.88
2022-07-26T03:12:51.608Z,12.68
2022-07-26T03:15:17.956Z,14.55
2022-07-26T03:17:44.411Z,13.50
2022-07-26T03:20:10.884Z,12.57
2022-07-26T03:22:37.195Z,12.88
2022-07-26T03:25:03.435Z,15.05
2022-07-26T03:27:29.679Z,13.93
2022-07-26T03:29:55.973Z,12.68
2022-07-26T03:32:22.289Z,14.68
2022-07-26T03:34:48.614Z,18.40
2022-07-26T03:37:14.953Z,11.63
2022-07-26T03:39:41.377Z,16.33
2022-07-26T03:42:07.814Z,13.02
2022-07-26T03:44:34.041Z,16.67
2022-07-26T03:47:00.373Z,15.07
2022-07-26T03:49:26.697Z,14.23
2022-07-26T03:52:00.378Z,14.07
2022-07-26T03:54:26.639Z,13.32
2022-07-26T03:56:52.929Z,15.00
2022-07-26T03:59:19.210Z,12.05
2022-07-26T04:01:45.535Z,12.75
2022-07-26T04:04:12.240Z,13.32
2022-07-26T04:06:38.769Z,9.48
2022-07-26T04:09:06.094Z,12.55
2022-07-26T04:11:32.559Z,11.30
2022-07-26T04:13:58.834Z,10.40
2022-07-26T04:16:25.346Z,10.40
2022-07-26T04:18:51.641Z,14.02
2022-07-26T04:21:18.065Z,10.00
2022-07-26T04:23:49.209Z,12.43
2022-07-26T04:26:17.555Z,10.27
2022-07-26T04:28:43.792Z,13.65
2022-07-26T04:31:10.178Z,13.15
2022-07-26T04:33:36.467Z,12.27
2022-07-26T04:36:02.830Z,10.60
2022-07-26T04:38:29.316Z,11.75
2022-07-26T04:40:55.596Z,13.63
2022-07-26T04:43:21.838Z,9.02
2022-07-26T04:45:48.311Z,19.95
2022-07-26T04:48:14.882Z,12.88
2022-07-26T04:50:41.166Z,13.27
2022-07-26T04:53:07.467Z,12.20
2022-07-26T04:55:33.854Z,11.10
2022-07-26T04:58:00.126Z,11.02
2022-07-26T05:00:26.407Z,9.98
2022-07-26T05:02:52.793Z,13.35
2022-07-26T05:05:19.082Z,12.55
2022-07-26T05:07:45.307Z,12.63
2022-07-26T05:10:11.567Z,11.98
2022-07-26T05:12:37.809Z,10.30
2022-07-26T05:15:04.486Z,10.75
2022-07-26T05:17:30.911Z,9.82
2022-07-26T05:20:00.010Z,10.82
2022-07-26T05:22:29.362Z,12.13
2022-07-26T05:24:55.680Z,9.65
2022-07-26T05:27:21.925Z,14.43
2022-07-26T05:29:48.153Z,16.15
2022-07-26T05:32:14.456Z,13.05
2022-07-26T05:34:40.717Z,15.85
2022-07-26T05:37:06.981Z,13.07
2022-07-26T05:39:33.273Z,12.57
2022-07-26T05:41:59.625Z,13.38
2022-07-26T05:44:26.021Z,24.65
2022-07-26T05:46:52.884Z,14.27
2022-07-26T05:49:19.158Z,12.88
2022-07-26T05:51:45.431Z,11.07
2022-07-26T05:54:12.184Z,12.52
2022-07-26T05:56:38.440Z,13.18
2022-07-26T05:59:05.130Z,16.27
2022-07-26T06:01:31.371Z,9.10
2022-07-26T06:03:59.237Z,15.57
2022-07-26T06:06:25.592Z,17.92
2022-07-26T06:08:51.827Z,11.68
2022-07-26T06:11:18.068Z,10.82
2022-07-26T06:13:44.364Z,14.88
2022-07-26T06:16:10.743Z,9.38
2022-07-26T06:18:36.969Z,11.13
2022-07-26T06:21:03.224Z,12.07
2022-07-26T06:23:34.532Z,14.02
2022-07-26T06:26:01.369Z,9.10
2022-07-26T06:28:27.606Z,13.10
2022-07-26T06:30:53.868Z,11.45
2022-07-26T06:33:20.125Z,7.82
2022-07-26T06:35:46.385Z,9.40
2022-07-26T06:38:12.605Z,9.00
2022-07-26T06:40:38.869Z,10.63
2022-07-26T06:43:05.154Z,9.73
2022-07-26T06:45:31.425Z,10.38
2022-07-26T06:47:57.682Z,11.80
2022-07-26T06:50:25.329Z,9.40
2022-07-26T06:52:52.025Z,12.93
2022-07-26T06:55:18.291Z,13.85
2022-07-26T06:57:48.858Z,7.07
2022-07-26T07:00:16.757Z,16.52
2022-07-26T07:02:42.990Z,7.75
2022-07-26T07:05:09.388Z,10.95
2022-07-26T07:07:35.680Z,11.43
2022-07-26T07:10:02.792Z,11.23
2022-07-26T07:12:29.047Z,11.30
2022-07-26T07:14:55.358Z,13.50
2022-07-26T07:17:21.614Z,8.35
2022-07-26T07:19:48.133Z,6.90
2022-07-26T07:22:14.459Z,7.15
2022-07-26T07:24:40.790Z,7.03
2022-07-26T07:27:07.144Z,8.52
2022-07-26T07:29:33.536Z,8.15
2022-07-26T07:31:59.916Z,10.18
2022-07-26T07:34:29.840Z,10.00
2022-07-26T07:36:56.145Z,6.88
2022-07-26T07:39:24.007Z,10.73
2022-07-26T07:44:20.036Z,8.10
2022-07-26T07:46:46.502Z,8.73
2022-07-26T07:49:13.336Z,5.90
2022-07-26T07:51:39.864Z,8.43
2022-07-26T07:54:06.315Z,7.78
2022-07-26T07:56:32.740Z,4.50
2022-07-26T07:58:59.042Z,9.48
2022-07-26T08:01:25.406Z,4.45
2022-07-26T08:04:07.193Z,9.30
2022-07-26T08:06:33.684Z,4.18
2022-07-26T08:08:59.930Z,8.15
2022-07-26T08:11:26.598Z,5.60
2022-07-26T08:16:23.027Z,4.20
2022-07-26T08:18:56.970Z,8.30
2022-07-26T08:21:23.889Z,8.95
2022-07-26T08:23:52.572Z,8.05
2022-07-26T08:26:18.976Z,5.78
2022-07-26T08:28:47.828Z,2.75
2022-07-26T08:31:14.417Z,3.40
2022-07-26T08:33:41.005Z,8.27
2022-07-26T08:36:12.278Z,3.50
2022-07-26T08:38:38.547Z,11.90
2022-07-26T08:41:04.811Z,5.00
2022-07-26T08:43:31.131Z,5.43
2022-07-26T08:45:59.106Z,11.35
2022-07-26T08:48:25.460Z,7.95
2022-07-26T08:50:51.771Z,3.83
2022-07-26T08:53:18.034Z,5.93
2022-07-26T08:56:05.959Z,6.25
2022-07-26T08:58:30.933Z,6.78
2022-07-26T09:00:57.235Z,4.47
2022-07-26T09:03:23.589Z,7.53
2022-07-26T09:05:50.155Z,10.68
2022-07-26T09:08:16.550Z,7.07
2022-07-26T09:10:43.024Z,8.48
2022-07-26T09:13:09.342Z,6.10
2022-07-26T09:15:35.646Z,7.28
2022-07-26T09:18:01.971Z,9.52
2022-07-26T09:20:29.121Z,7.50
2022-07-26T09:22:55.789Z,11.30
2022-07-26T09:25:22.181Z,4.78
2022-07-26T09:27:48.460Z,6.13
2022-07-26T09:30:14.863Z,11.82
2022-07-26T09:32:41.466Z,8.43
2022-07-26T09:35:24.106Z,5.47
2022-07-26T09:37:54.071Z,4.13
2022-07-26T09:40:20.338Z,10.05
2022-07-26T09:42:46.888Z,3.95
2022-07-26T09:45:13.231Z,3.83
2022-07-26T09:47:39.710Z,5.07
2022-07-26T09:50:10.851Z,2.50
2022-07-26T09:52:37.781Z,4.47
2022-07-26T09:55:04.091Z,3.75
2022-07-26T09:57:30.364Z,3.92
2022-07-26T09:59:56.593Z,4.35
2022-07-26T10:02:22.896Z,3.08
2022-07-26T10:04:49.339Z,1.45
2022-07-26T10:07:15.956Z,5.53
2022-07-26T10:09:42.378Z,4.45
2022-07-26T10:12:08.714Z,2.20
2022-07-26T10:14:35.052Z,3.13
2022-07-26T10:17:01.625Z,4.03
2022-07-26T10:19:28.217Z,9.27
2022-07-26T10:21:57.834Z,3.72
2022-07-26T10:24:24.162Z,5.82
2022-07-26T10:26:50.520Z,4.50
2022-07-26T10:29:18.804Z,3.42
2022-07-26T10:31:45.141Z,3.28
2022-07-26T10:34:12.922Z,4.57
2022-07-26T10:36:39.633Z,2.83
2022-07-26T10:39:06.055Z,3.40
2022-07-26T10:41:32.469Z,2.13
2022-07-26T10:43:58.800Z,5.88
2022-07-26T10:46:25.157Z,5.10
2022-07-26T10:48:51.631Z,1.90
2022-07-26T10:51:17.924Z,4.65
2022-07-26T10:53:44.250Z,2.45
2022-07-26T10:56:10.668Z,5.68
2022-07-26T10:58:36.897Z,6.70
2022-07-26T11:01:03.151Z,4.35
2022-07-26T11:03:29.401Z,3.97
2022-07-26T11:05:55.798Z,5.63
2022-07-26T11:08:22.236Z,4.10
2022-07-26T11:10:48.543Z,2.28
2022-07-26T11:13:14.942Z,4.55
2022-07-26T11:15:41.521Z,2.47
2022-07-26T11:18:08.027Z,2.95
2022-07-26T11:20:34.284Z,5.03
2022-07-26T11:23:00.800Z,8.85
2022-07-26T11:25:27.093Z,4.60
2022-07-26T11:27:53.601Z,5.28
2022-07-26T11:30:19.887Z,3.10
2022-07-26T11:32:46.177Z,5.47
2022-07-26T11:35:13.941Z,6.18
2022-07-26T11:37:40.187Z,10.10
2022-07-26T11:40:06.532Z,8.25
2022-07-26T11:42:32.820Z,6.53
2022-07-26T11:44:59.104Z,2.85
2022-07-26T11:47:26.633Z,2.13
2022-07-26T11:52:40.032Z,3.30
2022-07-26T11:55:06.325Z,7.65
2022-07-26T11:57:33.040Z,2.70
2022-07-26T11:59:59.423Z,5.95
2022-07-26T12:02:25.901Z,5.78
2022-07-26T12:04:52.266Z,10.43
2022-07-26T12:07:18.691Z,2.67
2022-07-26T12:09:44.941Z,3.97
2022-07-26T12:12:11.209Z,2.40
2022-07-26T12:14:37.468Z,4.70
2022-07-26T12:17:03.789Z,7.38
2022-07-26T12:19:30.240Z,6.65
2022-07-26T12:21:56.582Z,4.07
2022-07-26T12:24:23.030Z,3.78
2022-07-26T12:26:49.383Z,5.55
2022-07-26T12:29:15.609Z,6.20
2022-07-26T12:31:42.326Z,10.60
2022-07-26T12:34:09.236Z,10.32
2022-07-26T12:36:35.856Z,6.53
2022-07-26T12:39:02.331Z,7.88
2022-07-26T12:41:28.654Z,12.30
2022-07-26T12:43:55.059Z,9.35
2022-07-26T12:46:21.612Z,12.68
2022-07-26T12:48:48.158Z,6.05
2022-07-26T12:51:14.479Z,7.70
2022-07-26T12:53:40.743Z,2.58
2022-07-26T12:56:07.113Z,8.48
2022-07-26T12:58:33.605Z,3.92
2022-07-26T13:00:59.934Z,8.18
2022-07-26T13:03:26.232Z,7.28
2022-07-26T13:05:52.571Z,3.42
2022-07-26T13:08:19.022Z,3.42
2022-07-26T13:10:45.296Z,3.28
2022-07-26T13:13:11.544Z,5.40
2022-07-26T13:15:38.151Z,7.63
2022-07-26T13:18:04.577Z,1.55
2022-07-26T13:20:30.963Z,2.90
2022-07-26T13:22:57.244Z,5.65
2022-07-26T13:25:24.135Z,2.53
2022-07-26T13:27:52.334Z,3.72
2022-07-26T13:30:19.327Z,1.48
2022-07-26T13:32:45.721Z,2.35
2022-07-26T13:35:12.018Z,4.30
2022-07-26T13:37:38.541Z,3.47
2022-07-26T13:40:04.837Z,2.10
2022-07-26T13:42:31.116Z,3.45
2022-07-26T13:44:57.346Z,2.13
2022-07-26T13:47:23.718Z,5.88
2022-07-26T13:49:49.995Z,6.75
2022-07-26T13:52:17.002Z,2.00
2022-07-26T13:54:43.468Z,3.30
2022-07-26T13:57:09.825Z,2.78
2022-07-26T13:59:36.117Z,3.00
2022-07-26T14:02:02.539Z,3.45
2022-07-26T14:04:29.174Z,2.22
2022-07-26T14:06:55.509Z,5.45
2022-07-26T14:09:21.760Z,5.13
2022-07-26T14:11:47.998Z,2.83
2022-07-26T14:14:14.653Z,3.08
2022-07-26T14:16:41.244Z,3.45
2022-07-26T14:19:07.691Z,1.80
2022-07-26T14:21:38.679Z,2.60
2022-07-26T14:24:14.152Z,1.17
2022-07-26T14:26:42.752Z,1.35
2022-07-26T14:29:09.117Z,2.92
2022-07-26T14:31:35.529Z,6.28
2022-07-26T14:34:01.887Z,4.10
2022-07-26T14:36:28.151Z,4.15
2022-07-26T14:38:54.509Z,2.85
2022-07-26T14:41:20.733Z,2.70
2022-07-26T14:43:51.070Z,3.80
2022-07-26T14:46:20.581Z,4.00
2022-07-26T14:48:54.612Z,4.38
2022-07-26T14:51:21.257Z,2.70
2022-07-26T14:53:47.600Z,12.93
2022-07-26T14:56:13.857Z,2.15
2022-07-26T14:58:40.250Z,3.58
2022-07-26T15:01:06.663Z,4.20
2022-07-26T15:03:33.098Z,2.50
2022-07-26T15:05:59.312Z,6.55
2022-07-26T15:08:25.622Z,7.15
2022-07-26T15:10:51.900Z,3.65
2022-07-26T15:13:18.326Z,1.75
2022-07-26T15:15:44.613Z,4.38
2022-07-26T15:18:10.905Z,2.95
2022-07-26T15:20:37.208Z,1.80
2022-07-26T15:23:03.484Z,2.63
2022-07-26T15:25:29.724Z,2.60
2022-07-26T15:27:55.982Z,3.05
2022-07-26T15:30:22.220Z,2.03
2022-07-26T15:32:51.804Z,4.55
2022-07-26T15:35:18.187Z,1.70
2022-07-26T15:37:44.689Z,3.30
2022-07-26T15:40:11.140Z,2.63
2022-07-26T15:42:37.451Z,3.17
2022-07-26T15:45:06.977Z,2.90
2022-07-26T15:50:22.413Z,4.97
2022-07-26T15:52:48.712Z,2.55
2022-07-26T15:55:15.023Z,1.83
2022-07-26T15:57:41.244Z,1.40
2022-07-26T16:00:11.507Z,4.25
2022-07-26T16:02:38.318Z,1.30
2022-07-26T16:05:04.641Z,2.55
2022-07-26T16:07:31.070Z,1.35
2022-07-26T16:09:57.412Z,1.48
2022-07-26T16:12:23.664Z,2.83
2022-07-26T16:14:50.018Z,2.10
2022-07-26T16:17:16.314Z,3.20
2022-07-26T16:19:42.640Z,2.03
2022-07-26T16:22:09.083Z,6.50
2022-07-26T16:24:35.821Z,0.63
2022-07-26T16:27:02.164Z,1.45
2022-07-26T16:29:28.509Z,5.65
2022-07-26T16:31:54.838Z,1.88
2022-07-26T16:34:21.222Z,1.02
2022-07-26T16:36:47.518Z,1.52
2022-07-26T16:39:14.281Z,0.65
2022-07-26T16:41:41.116Z,4.57
2022-07-26T16:44:07.407Z,3.58
2022-07-26T16:46:33.875Z,4.15
2022-07-26T16:49:00.246Z,1.00
2022-07-26T16:51:26.795Z,0.85
2022-07-26T16:53:53.124Z,1.73
2022-07-26T16:56:19.573Z,0.80
2022-07-26T16:58:45.880Z,0.52
2022-07-26T17:01:12.180Z,3.95
2022-07-26T17:03:38.480Z,3.15
2022-07-26T17:06:06.640Z,0.70
2022-07-26T17:08:33.185Z,2.70
2022-07-26T17:10:59.592Z,1.95
2022-07-26T17:13:26.066Z,2.60
2022-07-26T17:15:52.343Z,3.22
2022-07-26T17:18:18.818Z,3.10
2022-07-26T17:20:45.295Z,4.90
2022-07-26T17:23:11.605Z,4.43
2022-07-26T17:25:37.883Z,1.05
2022-07-26T17:28:04.257Z,0.73
2022-07-26T17:30:30.693Z,2.95
2022-07-26T17:32:57.180Z,1.02
2022-07-26T17:35:23.498Z,1.23
2022-07-26T17:37:49.792Z,1.73
2022-07-26T17:40:16.402Z,1.23
2022-07-26T17:42:42.854Z,1.27
2022-07-26T17:45:09.218Z,1.08
2022-07-26T17:47:35.526Z,5.72
2022-07-26T17:50:26.387Z,1.80
2022-07-26T17:52:48.193Z,0.82
2022-07-26T17:55:14.458Z,2.40
2022-07-26T17:57:40.948Z,5.63
2022-07-26T18:00:07.279Z,1.60
2022-07-26T18:02:33.567Z,0.65
2022-07-26T18:04:59.902Z,1.27
2022-07-26T18:07:26.337Z,1.20
2022-07-26T18:09:52.804Z,0.80
2022-07-26T18:12:19.300Z,0.65
2022-07-26T18:14:45.598Z,1.48
2022-07-26T18:17:11.897Z,1.75
2022-07-26T18:19:38.275Z,5.65
2022-07-26T18:22:06.233Z,2.00
2022-07-26T18:24:32.767Z,7.28
2022-07-26T18:26:59.038Z,2.45
2022-07-26T18:29:25.356Z,4.43
2022-07-26T18:31:51.749Z,2.35
2022-07-26T18:34:18.097Z,2.13
2022-07-26T18:36:44.336Z,0.60
2022-07-26T18:39:10.922Z,4.13
2022-07-26T18:41:37.603Z,2.92
2022-07-26T18:44:03.999Z,0.88
2022-07-26T18:46:30.263Z,5.65
2022-07-26T18:48:56.832Z,1.13
2022-07-26T18:51:23.586Z,0.70
2022-07-26T18:53:53.135Z,8.93
2022-07-26T18:56:19.373Z,2.72
2022-07-26T18:58:45.712Z,1.17
2022-07-26T19:01:12.059Z,4.57
2022-07-26T19:03:38.504Z,9.73
2022-07-26T19:06:04.790Z,5.03
2022-07-26T19:08:31.094Z,2.20
2022-07-26T19:10:57.318Z,1.80
2022-07-26T19:13:23.586Z,1.35
2022-07-26T19:15:49.846Z,1.58
2022-07-26T19:18:16.165Z,5.43
2022-07-26T19:20:42.466Z,1.30
2022-07-26T19:23:11.075Z,3.10
2022-07-26T19:25:37.380Z,7.63
2022-07-26T19:28:03.684Z,0.60
2022-07-26T19:30:30.002Z,2.13
2022-07-26T19:32:56.431Z,3.75
2022-07-26T19:35:22.655Z,7.93
2022-07-26T19:37:49.010Z,8.68
2022-07-26T19:40:15.232Z,5.10
2022-07-26T19:42:41.524Z,5.25
2022-07-26T19:45:07.796Z,4.10
2022-07-26T19:47:34.026Z,9.07
2022-07-26T19:50:00.277Z,3.33
2022-07-26T19:52:26.547Z,0.98
2022-07-26T19:54:52.789Z,1.50
2022-07-26T19:57:19.046Z,3.15
2022-07-26T19:59:45.343Z,4.82
2022-07-26T20:02:11.727Z,4.38
2022-07-26T20:04:40.714Z,2.63
2022-07-26T20:07:09.146Z,4.63
2022-07-26T20:09:35.387Z,4.30
2022-07-26T20:12:01.649Z,4.78
2022-07-26T20:14:27.930Z,2.75
2022-07-26T20:16:56.243Z,6.97
2022-07-26T20:19:22.803Z,2.33
2022-07-26T20:21:49.007Z,3.75
2022-07-26T20:24:15.241Z,7.10
2022-07-26T20:26:41.443Z,4.45
2022-07-26T20:29:07.799Z,2.05
2022-07-26T20:31:34.114Z,2.72
2022-07-26T20:34:00.352Z,3.40
2022-07-26T20:36:26.576Z,9.65
2022-07-26T20:38:52.841Z,3.95
2022-07-26T20:41:19.074Z,4.70
2022-07-26T20:43:47.145Z,7.20
2022-07-26T20:46:14.128Z,4.22
2022-07-26T20:48:40.444Z,4.93
2022-07-26T20:51:06.691Z,4.45
2022-07-26T20:53:39.839Z,3.05
2022-07-26T20:56:06.084Z,2.55
2022-07-26T20:58:32.381Z,7.95
2022-07-26T21:00:58.671Z,7.18
2022-07-26T21:03:24.960Z,9.23
2022-07-26T21:05:51.177Z,3.65
2022-07-26T21:08:17.480Z,12.63
2022-07-26T21:10:43.688Z,2.60
2022-07-26T21:13:09.961Z,4.90
2022-07-26T21:15:36.180Z,7.25
2022-07-26T21:18:02.419Z,3.85
2022-07-26T21:20:30.225Z,9.43
2022-07-26T21:23:08.199Z,6.20
2022-07-26T21:25:39.285Z,5.15
2022-07-26T21:28:05.510Z,2.67
2022-07-26T21:30:31.748Z,5.47
2022-07-26T21:32:57.968Z,6.72
2022-07-26T21:35:24.203Z,7.30
2022-07-26T21:37:50.426Z,6.80
2022-07-26T21:40:16.662Z,3.50
2022-07-26T21:42:42.931Z,2.03
2022-07-26T21:45:09.177Z,7.15
2022-07-26T21:47:35.392Z,5.63
2022-07-26T21:50:01.661Z,8.38
2022-07-26T21:52:27.862Z,7.78
2022-07-26T21:54:54.096Z,5.25
2022-07-26T21:57:20.311Z,11.57
2022-07-26T21:59:46.558Z,2.63
2022-07-26T22:02:12.805Z,3.80
2022-07-26T22:04:39.334Z,4.95
2022-07-26T22:07:07.046Z,3.10
2022-07-26T22:09:33.372Z,1.92
2022-07-26T22:11:59.581Z,5.32
2022-07-26T22:14:25.812Z,8.95
2022-07-26T22:16:52.103Z,5.82
2022-07-26T22:19:18.421Z,5.75
2022-07-26T22:21:44.640Z,2.58
2022-07-26T22:24:10.878Z,5.25
2022-07-26T22:26:37.110Z,3.75
2022-07-26T22:29:03.374Z,9.35
2022-07-26T22:31:29.635Z,5.38
2022-07-26T22:33:55.966Z,4.97
2022-07-26T22:36:22.181Z,5.88
2022-07-26T22:38:48.432Z,5.18
2022-07-26T22:41:14.650Z,9.68
2022-07-26T22:43:40.913Z,6.45
2022-07-26T22:46:07.164Z,5.80
2022-07-26T22:48:37.915Z,3.65
2022-07-26T22:51:04.503Z,3.75
2022-07-26T22:53:30.751Z,4.20
2022-07-26T22:55:56.985Z,5.45
2022-07-26T22:58:23.249Z,6.97
2022-07-26T23:00:49.502Z,2.10
2022-07-26T23:03:19.763Z,2.67
2022-07-26T23:05:47.637Z,10.40
2022-07-26T23:08:44.190Z,5.43
2022-07-26T23:11:00.307Z,13.63
2022-07-26T23:13:26.687Z,10.35
2022-07-26T23:15:55.650Z,6.53
2022-07-26T23:18:26.124Z,5.47
2022-07-26T23:20:52.374Z,9.52
2022-07-26T23:23:18.604Z,7.28
2022-07-26T23:25:44.852Z,6.22
2022-07-26T23:28:36.097Z,6.67
2022-07-26T23:31:00.162Z,4.32
2022-07-26T23:33:52.667Z,7.13
2022-07-26T23:36:12.655Z,6.32
2022-07-26T23:38:38.901Z,3.75
2022-07-26T23:41:05.116Z,6.45
2022-07-26T23:43:31.340Z,4.82
2022-07-26T23:45:57.553Z,11.40
2022-07-26T23:48:23.799Z,6.35
2022-07-26T23:50:50.030Z,5.38
2022-07-26T23:53:16.261Z,4.47
2022-07-26T23:55:42.473Z,7.80
2022-07-26T23:58:15.543Z,5.40
